createdAt,value
2023-05-12T00:02:10.374Z,10.69
2023-05-12T00:04:39.752Z,10.69
2023-05-12T00:07:07.902Z,10.72
2023-05-12T00:09:38.084Z,10.74
2023-05-12T00:12:04.991Z,10.72
2023-05-12T00:14:34.763Z,10.75
2023-05-12T00:17:01.687Z,10.74
2023-05-12T00:19:28.027Z,10.72
2023-05-12T00:21:57.028Z,10.73
2023-05-12T00:24:24.539Z,10.72
2023-05-12T00:26:52.985Z,10.73
2023-05-12T00:29:19.335Z,10.72
2023-05-12T00:31:48.121Z,10.70
2023-05-12T00:34:15.717Z,10.70
2023-05-12T00:36:42.085Z,10.71
2023-05-12T00:39:08.517Z,10.67
2023-05-12T00:41:34.952Z,10.68
2023-05-12T00:44:01.339Z,10.61
2023-05-12T00:46:27.758Z,10.53
2023-05-12T00:48:56.405Z,10.48
2023-05-12T00:51:22.841Z,10.47
2023-05-12T00:53:50.547Z,10.52
2023-05-12T00:56:17.219Z,10.58
2023-05-12T00:58:43.558Z,10.64
2023-05-12T01:01:09.949Z,10.65
2023-05-12T01:03:37.175Z,10.55
2023-05-12T01:06:03.684Z,10.47
2023-05-12T01:08:30.272Z,10.39
2023-05-12T01:10:58.927Z,10.35
2023-05-12T01:13:25.964Z,10.36
2023-05-12T01:15:52.343Z,10.41
2023-05-12T01:18:19.982Z,10.45
2023-05-12T01:20:46.496Z,10.49
2023-05-12T01:23:12.979Z,10.56
2023-05-12T01:25:39.404Z,10.55
2023-05-12T01:28:05.818Z,10.55
2023-05-12T01:30:32.250Z,10.53
2023-05-12T01:32:58.806Z,10.55
2023-05-12T01:35:25.411Z,10.59
2023-05-12T01:37:51.796Z,10.58
2023-05-12T01:40:18.299Z,10.57
2023-05-12T01:42:44.991Z,10.57
2023-05-12T01:45:11.595Z,10.52
2023-05-12T01:47:38.711Z,10.49
2023-05-12T01:50:05.231Z,10.45
2023-05-12T01:52:31.649Z,10.46
2023-05-12T01:54:58.384Z,10.46
2023-05-12T02:02:45.488Z,10.60
2023-05-12T02:05:11.977Z,10.53
2023-05-12T02:07:39.503Z,10.46
2023-05-12T02:10:05.920Z,10.44
2023-05-12T02:12:32.381Z,10.40
2023-05-12T02:14:58.792Z,10.43
2023-05-12T02:17:25.353Z,10.49
2023-05-12T02:19:51.989Z,10.55
2023-05-12T02:22:23.041Z,10.51
2023-05-12T02:24:49.648Z,10.54
2023-05-12T02:27:18.061Z,10.57
2023-05-12T02:29:45.503Z,10.62
2023-05-12T02:32:13.748Z,10.65
2023-05-12T02:34:41.232Z,10.68
2023-05-12T02:37:07.688Z,10.70
2023-05-12T02:39:34.419Z,10.70
2023-05-12T02:42:00.791Z,10.73
2023-05-12T02:44:27.447Z,10.75
2023-05-12T02:46:54.129Z,10.79
2023-05-12T02:49:20.504Z,10.81
2023-05-12T02:51:46.888Z,10.82
2023-05-12T02:54:13.338Z,10.81
2023-05-12T02:56:39.700Z,10.79
2023-05-12T02:59:06.953Z,10.77
2023-05-12T03:01:33.529Z,10.79
2023-05-12T03:03:59.950Z,10.82
2023-05-12T03:06:27.077Z,10.82
2023-05-12T03:08:54.640Z,10.82
2023-05-12T03:11:21.022Z,10.81
2023-05-12T03:13:47.411Z,10.81
2023-05-12T03:16:14.532Z,10.83
2023-05-12T03:18:41.270Z,10.85
2023-05-12T03:21:08.049Z,10.83
2023-05-12T03:23:34.669Z,10.85
2023-05-12T03:26:02.062Z,10.87
2023-05-12T03:28:28.978Z,10.85
2023-05-12T03:30:55.680Z,10.84
2023-05-12T03:33:24.565Z,10.82
2023-05-12T03:35:52.624Z,10.79
2023-05-12T03:38:19.872Z,10.76
2023-05-12T03:40:46.267Z,10.77
2023-05-12T03:43:12.705Z,10.77
2023-05-12T03:45:39.192Z,10.75
2023-05-12T03:48:06.094Z,10.78
2023-05-12T03:50:32.525Z,10.84
2023-05-12T03:53:00.271Z,10.83
2023-05-12T03:55:27.174Z,10.76
2023-05-12T03:57:53.551Z,10.73
2023-05-12T04:00:20.518Z,10.72
2023-05-12T04:02:48.460Z,10.71
2023-05-12T04:05:20.366Z,10.72
2023-05-12T04:07:49.127Z,10.73
2023-05-12T04:10:15.833Z,10.70
2023-05-12T04:12:42.172Z,10.64
2023-05-12T04:15:09.788Z,10.63
2023-05-12T04:17:36.646Z,10.66
2023-05-12T04:20:03.111Z,10.67
2023-05-12T04:22:29.455Z,10.70
2023-05-12T04:24:58.336Z,10.74
2023-05-12T04:27:26.746Z,10.76
2023-05-12T04:29:53.258Z,10.80
2023-05-12T04:32:19.911Z,10.80
2023-05-12T04:34:46.836Z,10.82
2023-05-12T04:37:13.208Z,10.83
2023-05-12T04:39:41.300Z,10.82
2023-05-12T04:42:08.720Z,10.80
2023-05-12T04:44:35.192Z,10.82
2023-05-12T04:47:01.568Z,10.82
2023-05-12T04:49:27.925Z,10.83
2023-05-12T04:51:54.883Z,10.86
2023-05-12T04:54:21.344Z,10.84
2023-05-12T04:56:48.251Z,10.93
2023-05-12T04:59:15.334Z,10.88
2023-05-12T05:01:41.745Z,10.89
2023-05-12T05:04:09.279Z,10.95
2023-05-12T05:06:36.007Z,11.00
2023-05-12T05:09:02.430Z,11.05
2023-05-12T05:11:28.808Z,11.11
2023-05-12T05:13:58.303Z,11.13
2023-05-12T05:16:24.745Z,11.15
2023-05-12T05:18:51.452Z,11.14
2023-05-12T05:21:18.082Z,11.09
2023-05-12T05:23:44.575Z,11.14
2023-05-12T05:26:10.980Z,10.98
2023-05-12T05:28:37.405Z,11.04
2023-05-12T05:31:03.873Z,11.12
2023-05-12T05:33:30.273Z,11.13
2023-05-12T05:35:56.612Z,11.11
2023-05-12T05:38:22.960Z,10.91
2023-05-12T05:40:53.466Z,10.84
2023-05-12T05:43:23.509Z,10.71
2023-05-12T05:45:50.153Z,10.56
2023-05-12T05:48:18.961Z,10.47
2023-05-12T05:50:46.854Z,10.44
2023-05-12T05:53:13.861Z,10.40
2023-05-12T05:55:40.272Z,10.38
2023-05-12T05:58:06.657Z,10.32
2023-05-12T06:00:32.996Z,10.26
2023-05-12T06:02:59.440Z,10.23
2023-05-12T06:05:25.886Z,10.22
2023-05-12T06:07:52.389Z,10.23
2023-05-12T06:10:18.989Z,10.28
2023-05-12T06:12:45.491Z,10.37
2023-05-12T06:15:12.038Z,10.51
2023-05-12T06:17:38.509Z,10.54
2023-05-12T06:20:05.154Z,10.53
2023-05-12T06:22:31.540Z,10.57
2023-05-12T06:24:58.276Z,10.55
2023-05-12T06:27:24.651Z,10.57
2023-05-12T06:29:53.669Z,10.69
2023-05-12T06:32:22.417Z,10.74
2023-05-12T06:34:48.819Z,10.83
2023-05-12T06:37:17.508Z,10.87
2023-05-12T06:39:43.863Z,10.91
2023-05-12T06:42:10.354Z,10.98
2023-05-12T06:44:37.830Z,11.12
2023-05-12T06:47:04.921Z,11.01
2023-05-12T06:49:31.260Z,11.12
2023-05-12T06:51:57.855Z,11.15
2023-05-12T06:54:24.231Z,11.23
2023-05-12T06:56:53.180Z,11.28
2023-05-12T06:59:21.262Z,11.28
2023-05-12T07:01:47.813Z,11.42
2023-05-12T07:04:14.357Z,11.61
2023-05-12T07:06:40.813Z,11.80
2023-05-12T07:09:07.165Z,11.91
2023-05-12T07:11:33.774Z,12.02
2023-05-12T07:14:02.974Z,12.15
2023-05-12T07:16:29.468Z,12.25
2023-05-12T07:18:55.951Z,12.34
2023-05-12T07:21:22.368Z,12.43
2023-05-12T07:23:48.730Z,12.43
2023-05-12T07:26:17.525Z,12.43
2023-05-12T07:28:44.157Z,12.38
2023-05-12T07:31:10.557Z,12.25
2023-05-12T07:33:37.006Z,12.24
2023-05-12T07:36:03.750Z,12.13
2023-05-12T07:38:31.051Z,12.20
2023-05-12T07:40:57.400Z,11.95
2023-05-12T07:43:26.703Z,11.73
2023-05-12T07:45:54.014Z,11.74
2023-05-12T07:48:20.346Z,11.72
2023-05-12T07:50:47.051Z,11.82
2023-05-12T07:53:14.192Z,11.91
2023-05-12T07:55:41.892Z,11.95
2023-05-12T07:58:08.389Z,11.89
2023-05-12T08:00:34.783Z,12.06
2023-05-12T08:03:01.390Z,12.27
2023-05-12T08:05:27.848Z,12.38
2023-05-12T08:07:54.353Z,12.24
2023-05-12T08:10:22.186Z,12.20
2023-05-12T08:12:48.924Z,12.25
2023-05-12T08:15:16.366Z,12.40
2023-05-12T08:17:45.310Z,12.67
2023-05-12T08:20:12.275Z,12.73
2023-05-12T08:22:39.750Z,12.87
2023-05-12T08:25:13.367Z,13.05
2023-05-12T08:27:40.025Z,13.23
2023-05-12T08:30:06.589Z,13.33
2023-05-12T08:32:34.441Z,13.01
2023-05-12T08:35:00.857Z,13.04
2023-05-12T08:37:27.241Z,13.22
2023-05-12T08:39:53.714Z,13.46
2023-05-12T08:42:20.330Z,13.31
2023-05-12T08:44:51.219Z,13.26
2023-05-12T08:47:17.607Z,13.39
2023-05-12T08:49:44.165Z,13.36
2023-05-12T08:52:10.556Z,13.54
2023-05-12T08:54:48.511Z,13.34
2023-05-12T08:57:19.273Z,13.55
2023-05-12T08:59:46.691Z,13.66
2023-05-12T09:02:15.553Z,13.82
2023-05-12T09:04:42.091Z,14.16
2023-05-12T09:07:08.484Z,13.71
2023-05-12T09:09:36.102Z,13.70
2023-05-12T09:12:03.298Z,13.67
2023-05-12T09:14:30.880Z,13.73
2023-05-12T09:16:59.542Z,13.54
2023-05-12T09:19:28.307Z,13.30
2023-05-12T09:22:01.929Z,13.07
2023-05-12T09:24:28.564Z,13.02
2023-05-12T09:26:56.424Z,13.15
2023-05-12T09:29:31.829Z,13.37
2023-05-12T09:32:00.021Z,13.49
2023-05-12T09:34:26.855Z,13.60
2023-05-12T09:36:53.248Z,13.60
2023-05-12T09:39:19.974Z,13.61
2023-05-12T09:41:46.352Z,13.49
2023-05-12T09:44:15.445Z,13.56
2023-05-12T09:46:43.826Z,13.51
2023-05-12T09:49:10.484Z,13.52
2023-05-12T09:51:37.057Z,13.54
2023-05-12T09:54:04.252Z,13.63
2023-05-12T09:56:32.249Z,13.30
2023-05-12T09:58:58.981Z,13.48
2023-05-12T10:01:26.839Z,13.56
2023-05-12T10:03:53.387Z,13.70
2023-05-12T10:06:19.829Z,13.92
2023-05-12T10:08:46.228Z,14.16
2023-05-12T10:11:12.610Z,14.32
2023-05-12T10:13:39.316Z,14.53
2023-05-12T10:16:06.072Z,14.80
2023-05-12T10:18:32.617Z,14.92
2023-05-12T10:20:59.034Z,15.08
2023-05-12T10:23:25.410Z,15.10
2023-05-12T10:25:51.837Z,15.09
2023-05-12T10:28:18.776Z,14.79
2023-05-12T10:30:45.174Z,14.83
2023-05-12T10:33:15.041Z,14.92
2023-05-12T10:35:41.474Z,15.05
2023-05-12T10:38:07.819Z,15.09
2023-05-12T10:40:34.179Z,15.08
2023-05-12T10:43:00.773Z,15.16
2023-05-12T10:45:27.124Z,15.34
2023-05-12T10:47:53.602Z,15.53
2023-05-12T10:50:19.986Z,15.63
2023-05-12T10:52:46.455Z,15.70
2023-05-12T10:55:15.515Z,15.69
2023-05-12T10:57:44.896Z,15.74
2023-05-12T11:00:14.369Z,15.83
2023-05-12T11:02:41.953Z,15.66
2023-05-12T11:05:09.948Z,15.74
2023-05-12T11:07:37.618Z,15.83
2023-05-12T11:10:05.243Z,16.05
2023-05-12T11:12:33.178Z,16.28
2023-05-12T11:14:59.769Z,16.65
2023-05-12T11:17:26.260Z,17.00
2023-05-12T11:19:53.298Z,17.16
2023-05-12T11:22:21.229Z,17.43
2023-05-12T11:24:47.597Z,17.43
2023-05-12T11:27:13.983Z,17.57
2023-05-12T11:29:41.402Z,17.37
2023-05-12T11:32:08.107Z,17.03
2023-05-12T11:34:35.545Z,16.84
2023-05-12T11:37:01.988Z,16.43
2023-05-12T11:39:28.710Z,16.11
2023-05-12T11:42:05.495Z,16.26
2023-05-12T11:44:39.912Z,16.39
2023-05-12T11:47:07.291Z,16.25
2023-05-12T11:49:33.636Z,16.39
2023-05-12T11:52:00.033Z,16.17
2023-05-12T11:54:26.941Z,15.87
2023-05-12T11:57:00.421Z,16.01
2023-05-12T11:59:26.798Z,16.22
2023-05-12T12:01:53.157Z,16.40
2023-05-12T12:04:20.741Z,16.49
2023-05-12T12:06:47.288Z,16.69
2023-05-12T12:09:16.022Z,16.79
2023-05-12T12:11:42.394Z,17.09
2023-05-12T12:14:08.782Z,17.37
2023-05-12T12:16:35.216Z,17.34
2023-05-12T12:19:01.724Z,17.02
2023-05-12T12:21:28.148Z,16.75
2023-05-12T12:23:56.799Z,16.81
2023-05-12T12:26:23.163Z,16.65
2023-05-12T12:28:50.494Z,16.30
2023-05-12T12:31:16.908Z,16.37
2023-05-12T12:33:43.422Z,16.59
2023-05-12T12:36:09.807Z,16.97
2023-05-12T12:38:37.142Z,17.00
2023-05-12T12:41:03.544Z,17.14
2023-05-12T12:43:31.864Z,17.11
2023-05-12T12:45:58.342Z,17.31
2023-05-12T12:48:24.697Z,17.17
2023-05-12T12:50:51.489Z,16.95
2023-05-12T12:53:18.492Z,16.95
2023-05-12T12:55:44.902Z,16.91
2023-05-12T12:58:11.534Z,17.29
2023-05-12T13:00:37.972Z,17.38
2023-05-12T13:03:04.513Z,17.61
2023-05-12T13:05:31.217Z,17.82
2023-05-12T13:07:59.648Z,17.94
2023-05-12T13:10:26.299Z,18.10
2023-05-12T13:12:52.773Z,18.14
2023-05-12T13:15:19.728Z,18.10
2023-05-12T13:17:48.772Z,17.78
2023-05-12T13:20:15.202Z,16.97
2023-05-12T13:22:41.625Z,16.78
2023-05-12T13:25:08.260Z,16.68
2023-05-12T13:27:34.713Z,16.44
2023-05-12T13:30:01.212Z,16.37
2023-05-12T13:32:27.564Z,16.44
2023-05-12T13:34:53.981Z,16.57
2023-05-12T13:37:22.189Z,16.44
2023-05-12T13:39:48.615Z,16.71
2023-05-12T13:42:15.021Z,16.58
2023-05-12T13:44:41.580Z,16.10
2023-05-12T13:47:08.053Z,15.93
2023-05-12T13:49:34.627Z,16.13
2023-05-12T13:52:00.998Z,16.23
2023-05-12T13:54:27.379Z,16.48
2023-05-12T13:56:53.735Z,16.70
2023-05-12T13:59:20.253Z,16.53
2023-05-12T14:01:46.988Z,16.76
2023-05-12T14:04:14.415Z,16.35
2023-05-12T14:06:41.100Z,16.67
2023-05-12T14:09:08.364Z,16.79
2023-05-12T14:11:35.036Z,16.93
2023-05-12T14:14:01.560Z,17.23
2023-05-12T14:16:28.098Z,17.38
2023-05-12T14:18:54.498Z,17.62
2023-05-12T14:21:21.173Z,17.66
2023-05-12T14:23:51.242Z,17.78
2023-05-12T14:26:17.775Z,17.75
2023-05-12T14:28:44.617Z,17.77
2023-05-12T14:31:11.138Z,17.90
2023-05-12T14:33:37.557Z,18.18
2023-05-12T14:36:08.091Z,18.18
2023-05-12T14:38:35.360Z,18.07
2023-05-12T14:41:01.752Z,17.38
2023-05-12T14:43:29.506Z,17.49
2023-05-12T14:45:55.957Z,16.92
2023-05-12T14:48:22.348Z,17.03
2023-05-12T14:50:48.974Z,17.10
2023-05-12T14:53:15.371Z,17.10
2023-05-12T14:55:41.917Z,17.13
2023-05-12T14:58:08.622Z,17.15
2023-05-12T15:00:35.113Z,17.06
2023-05-12T15:03:01.611Z,16.97
2023-05-12T15:05:52.767Z,16.85
2023-05-12T15:08:17.760Z,16.70
2023-05-12T15:10:44.204Z,16.71
2023-05-12T15:13:10.602Z,16.74
2023-05-12T15:15:36.977Z,16.84
2023-05-12T15:18:03.386Z,16.90
2023-05-12T15:20:29.776Z,16.99
2023-05-12T15:22:56.122Z,17.01
2023-05-12T15:25:22.512Z,17.14
2023-05-12T15:27:50.349Z,17.18
2023-05-12T15:30:16.757Z,17.18
2023-05-12T15:32:43.244Z,17.14
2023-05-12T15:35:09.644Z,16.92
2023-05-12T15:37:36.028Z,16.91
2023-05-12T15:40:02.472Z,16.36
2023-05-12T15:42:33.258Z,16.47
2023-05-12T15:44:59.881Z,16.66
2023-05-12T15:47:26.268Z,16.74
2023-05-12T15:49:52.833Z,16.74
2023-05-12T15:52:19.299Z,17.37
2023-05-12T15:54:45.798Z,17.68
2023-05-12T15:57:12.178Z,17.58
2023-05-12T15:59:38.942Z,17.81
2023-05-12T16:02:07.423Z,17.18
2023-05-12T16:04:33.825Z,17.24
2023-05-12T16:07:00.371Z,17.38
2023-05-12T16:09:26.862Z,17.43
2023-05-12T16:11:53.218Z,17.31
2023-05-12T16:14:19.645Z,17.20
2023-05-12T16:16:46.451Z,17.08
2023-05-12T16:19:13.874Z,16.89
2023-05-12T16:21:40.293Z,16.55
2023-05-12T16:24:08.325Z,16.38
2023-05-12T16:26:35.376Z,16.42
2023-05-12T16:29:01.780Z,16.24
2023-05-12T16:31:28.348Z,16.17
2023-05-12T16:33:55.800Z,15.98
2023-05-12T16:36:22.157Z,15.91
2023-05-12T16:38:48.495Z,15.97
2023-05-12T16:41:14.826Z,16.10
2023-05-12T16:43:41.179Z,15.98
2023-05-12T16:46:07.757Z,16.08
2023-05-12T16:48:34.316Z,16.17
2023-05-12T16:51:03.164Z,16.27
2023-05-12T16:53:29.713Z,16.08
2023-05-12T16:55:56.281Z,16.29
2023-05-12T16:58:22.700Z,16.41
2023-05-12T17:00:49.038Z,16.39
2023-05-12T17:03:15.507Z,16.64
2023-05-12T17:05:41.948Z,16.65
2023-05-12T17:08:08.660Z,16.30
2023-05-12T17:10:35.343Z,15.71
2023-05-12T17:13:01.705Z,15.49
2023-05-12T17:15:28.100Z,15.33
2023-05-12T17:17:55.821Z,15.22
2023-05-12T17:20:22.410Z,15.24
2023-05-12T17:22:51.210Z,15.34
2023-05-12T17:25:17.574Z,15.34
2023-05-12T17:27:44.079Z,15.37
2023-05-12T17:30:17.890Z,15.39
2023-05-12T17:32:44.492Z,15.30
2023-05-12T17:37:52.615Z,15.14
2023-05-12T17:40:20.074Z,15.13
2023-05-12T17:42:48.784Z,15.13
2023-05-12T17:45:16.142Z,15.09
2023-05-12T17:47:42.603Z,15.00
2023-05-12T17:50:09.005Z,14.95
2023-05-12T17:52:36.629Z,14.87
2023-05-12T17:55:02.974Z,14.86
2023-05-12T17:57:29.384Z,14.76
2023-05-12T17:59:55.997Z,14.74
2023-05-12T18:02:25.386Z,14.69
2023-05-12T18:04:51.900Z,14.65
2023-05-12T18:07:22.954Z,14.54
2023-05-12T18:09:50.291Z,14.52
2023-05-12T18:12:17.764Z,14.47
2023-05-12T18:14:44.401Z,14.46
2023-05-12T18:17:12.324Z,14.43
2023-05-12T18:19:38.777Z,14.41
2023-05-12T18:22:05.186Z,14.35
2023-05-12T18:24:33.094Z,14.25
2023-05-12T18:26:59.537Z,14.15
2023-05-12T18:29:25.929Z,14.08
2023-05-12T18:31:52.412Z,13.97
2023-05-12T18:34:19.836Z,13.86
2023-05-12T18:36:49.668Z,13.75
2023-05-12T18:39:16.764Z,13.73
2023-05-12T18:41:43.348Z,13.67
2023-05-12T18:44:09.842Z,13.64
2023-05-12T18:46:36.403Z,13.62
2023-05-12T18:49:03.195Z,13.58
2023-05-12T18:51:29.894Z,13.55
2023-05-12T18:54:00.225Z,13.52
2023-05-12T18:56:26.612Z,13.48
2023-05-12T18:59:00.172Z,13.43
2023-05-12T19:01:26.805Z,13.41
2023-05-12T19:03:54.254Z,13.30
2023-05-12T19:06:21.028Z,13.23
2023-05-12T19:08:47.676Z,13.10
2023-05-12T19:11:18.602Z,13.03
2023-05-12T19:13:45.041Z,12.98
2023-05-12T19:16:12.511Z,12.94
2023-05-12T19:18:39.001Z,12.90
2023-05-12T19:21:06.453Z,12.86
2023-05-12T19:23:33.824Z,12.78
2023-05-12T19:26:00.660Z,12.64
2023-05-12T19:28:28.408Z,12.56
2023-05-12T19:30:58.427Z,12.48
2023-05-12T19:33:27.019Z,12.45
2023-05-12T19:35:53.861Z,12.32
2023-05-12T19:38:20.801Z,12.08
2023-05-12T19:40:47.170Z,12.04
2023-05-12T19:43:14.499Z,12.05
2023-05-12T19:45:41.094Z,12.10
2023-05-12T19:48:07.740Z,12.16
2023-05-12T19:50:34.215Z,12.21
2023-05-12T19:53:01.118Z,12.26
2023-05-12T19:55:29.297Z,12.28
2023-05-12T19:57:55.806Z,12.28
2023-05-12T20:00:22.376Z,12.27
2023-05-12T20:02:49.190Z,12.12
2023-05-12T20:05:16.285Z,12.03
2023-05-12T20:07:42.957Z,11.96
2023-05-12T20:10:09.778Z,11.94
2023-05-12T20:12:38.471Z,11.95
2023-05-12T20:15:07.632Z,11.84
2023-05-12T20:17:34.376Z,11.75
2023-05-12T20:20:03.991Z,11.67
2023-05-12T20:22:30.815Z,11.59
2023-05-12T20:24:57.257Z,11.51
2023-05-12T20:27:23.598Z,11.47
2023-05-12T20:29:49.944Z,11.40
2023-05-12T20:32:16.389Z,11.35
2023-05-12T20:34:43.219Z,11.33
2023-05-12T20:37:09.840Z,11.28
2023-05-12T20:39:36.649Z,11.12
2023-05-12T20:42:05.579Z,11.10
2023-05-12T20:44:32.297Z,11.13
2023-05-12T20:46:58.714Z,11.13
2023-05-12T20:49:25.080Z,11.14
2023-05-12T20:51:51.431Z,11.11
2023-05-12T20:54:18.022Z,11.00
2023-05-12T20:56:44.406Z,10.97
2023-05-12T20:59:11.097Z,10.90
2023-05-12T21:01:37.600Z,10.81
2023-05-12T21:04:04.084Z,10.78
2023-05-12T21:06:30.544Z,10.74
2023-05-12T21:08:57.327Z,10.73
2023-05-12T21:11:23.668Z,10.64
2023-05-12T21:13:52.092Z,10.58
2023-05-12T21:16:18.824Z,10.55
2023-05-12T21:18:46.490Z,10.49
2023-05-12T21:21:12.952Z,10.41
2023-05-12T21:23:39.500Z,10.43
2023-05-12T21:26:05.878Z,10.45
2023-05-12T21:28:33.244Z,10.50
2023-05-12T21:30:59.803Z,10.53
2023-05-12T21:33:28.270Z,10.53
2023-05-12T21:35:54.749Z,10.50
2023-05-12T21:38:21.215Z,10.45
2023-05-12T21:40:47.782Z,10.41
2023-05-12T21:43:14.263Z,10.34
2023-05-12T21:45:40.650Z,10.31
2023-05-12T21:48:07.318Z,10.30
2023-05-12T21:50:34.280Z,10.31
2023-05-12T21:53:00.660Z,10.23
2023-05-12T21:55:27.153Z,10.14
2023-05-12T21:57:53.747Z,10.14
2023-05-12T22:00:20.570Z,10.14
2023-05-12T22:02:47.138Z,10.13
2023-05-12T22:05:16.640Z,10.11
2023-05-12T22:07:43.122Z,10.12
2023-05-12T22:10:13.937Z,10.11
2023-05-12T22:12:40.326Z,10.10
2023-05-12T22:15:09.272Z,10.09
2023-05-12T22:17:35.693Z,9.99
2023-05-12T22:20:04.633Z,10.01
2023-05-12T22:22:31.056Z,10.05
2023-05-12T22:24:57.399Z,10.03
2023-05-12T22:27:23.750Z,9.97
2023-05-12T22:29:50.382Z,9.84
2023-05-12T22:32:17.382Z,9.75
2023-05-12T22:34:43.950Z,9.73
2023-05-12T22:37:10.356Z,9.70
2023-05-12T22:39:36.867Z,9.67
2023-05-12T22:42:03.321Z,9.66
2023-05-12T22:44:29.733Z,9.69
2023-05-12T22:46:56.188Z,9.74
2023-05-12T22:49:22.705Z,9.82
2023-05-12T22:51:49.077Z,9.80
2023-05-12T22:54:16.039Z,9.71
2023-05-12T22:56:44.302Z,9.65
2023-05-12T22:59:11.665Z,9.69
2023-05-12T23:01:39.704Z,9.69
2023-05-12T23:04:06.134Z,9.69
2023-05-12T23:06:34.621Z,9.70
2023-05-12T23:09:01.088Z,9.57
2023-05-12T23:11:27.611Z,9.52
2023-05-12T23:13:53.975Z,9.49
2023-05-12T23:16:20.398Z,9.56
2023-05-12T23:18:49.218Z,9.56
2023-05-12T23:21:15.791Z,9.61
2023-05-12T23:23:42.203Z,9.70
2023-05-12T23:26:09.128Z,9.81
2023-05-12T23:28:36.011Z,9.84
2023-05-12T23:31:02.349Z,9.81
2023-05-12T23:33:28.978Z,9.77
2023-05-12T23:35:55.398Z,9.72
2023-05-12T23:38:24.179Z,9.74
2023-05-12T23:40:50.646Z,9.79
2023-05-12T23:43:17.436Z,9.72
2023-05-12T23:45:43.932Z,9.68
2023-05-12T23:48:12.705Z,9.69
2023-05-12T23:50:40.102Z,9.67
2023-05-12T23:53:06.437Z,9.69
2023-05-12T23:55:33.064Z,9.73
2023-05-12T23:57:59.415Z,9.76
